sensor_id;sensor_type;location;lat;lon;timestamp;P1;durP1;ratioP1;P2;durP2;ratioP2
15502;SDS011;7853;52.186;5.948;2023-06-22T00:03:31;3.41;;;2.72;;
15502;SDS011;7853;52.186;5.948;2023-06-22T00:03:31;2.92;;;2.54;;
15502;SDS011;7853;52.186;5.948;2023-06-22T00:03:31;2.79;;;2.54;;
15502;SDS011;7853;52.186;5.948;2023-06-22T00:04:20;3.13;;;2.40;;
15502;SDS011;7853;52.186;5.948;2023-06-22T00:05:27;2.87;;;2.62;;
15502;SDS011;7853;52.186;5.948;2023-06-22T00:06:31;3.22;;;2.65;;
15502;SDS011;7853;52.186;5.948;2023-06-22T00:07:33;3.42;;;2.77;;
15502;SDS011;7853;52.186;5.948;2023-06-22T00:08:34;3.81;;;2.92;;
15502;SDS011;7853;52.186;5.948;2023-06-22T00:09:34;3.03;;;2.68;;
15502;SDS011;7853;52.186;5.948;2023-06-22T00:10:35;3.19;;;2.66;;
15502;SDS011;7853;52.186;5.948;2023-06-22T00:11:35;3.05;;;2.73;;
15502;SDS011;7853;52.186;5.948;2023-06-22T00:12:35;3.04;;;2.75;;
15502;SDS011;7853;52.186;5.948;2023-06-22T00:13:35;2.97;;;2.59;;
15502;SDS011;7853;52.186;5.948;2023-06-22T00:14:35;3.51;;;2.78;;
15502;SDS011;7853;52.186;5.948;2023-06-22T00:15:35;2.69;;;2.47;;
15502;SDS011;7853;52.186;5.948;2023-06-22T00:16:35;3.24;;;2.50;;
15502;SDS011;7853;52.186;5.948;2023-06-22T00:17:35;3.21;;;2.56;;
15502;SDS011;7853;52.186;5.948;2023-06-22T00:18:35;3.57;;;2.66;;
15502;SDS011;7853;52.186;5.948;2023-06-22T00:19:35;3.00;;;2.58;;
15502;SDS011;7853;52.186;5.948;2023-06-22T00:20:35;3.24;;;2.64;;
15502;SDS011;7853;52.186;5.948;2023-06-22T00:21:35;3.90;;;2.78;;
15502;SDS011;7853;52.186;5.948;2023-06-22T00:22:35;3.49;;;2.58;;
15502;SDS011;7853;52.186;5.948;2023-06-22T00:23:35;3.15;;;2.67;;
15502;SDS011;7853;52.186;5.948;2023-06-22T00:24:35;3.03;;;2.70;;
15502;SDS011;7853;52.186;5.948;2023-06-22T00:25:35;3.35;;;2.94;;
15502;SDS011;7853;52.186;5.948;2023-06-22T00:26:35;3.04;;;2.70;;
15502;SDS011;7853;52.186;5.948;2023-06-22T00:27:35;3.22;;;2.61;;
15502;SDS011;7853;52.186;5.948;2023-06-22T00:28:35;4.93;;;2.66;;
15502;SDS011;7853;52.186;5.948;2023-06-22T00:29:35;3.12;;;2.63;;
15502;SDS011;7853;52.186;5.948;2023-06-22T00:30:35;2.88;;;2.63;;
15502;SDS011;7853;52.186;5.948;2023-06-22T00:31:35;3.09;;;2.77;;
15502;SDS011;7853;52.186;5.948;2023-06-22T00:32:35;2.87;;;2.56;;
15502;SDS011;7853;52.186;5.948;2023-06-22T00:33:35;3.15;;;2.68;;
15502;SDS011;7853;52.186;5.948;2023-06-22T00:34:35;3.10;;;2.73;;
15502;SDS011;7853;52.186;5.948;2023-06-22T00:35:35;2.66;;;2.46;;
15502;SDS011;7853;52.186;5.948;2023-06-22T00:36:35;2.80;;;2.58;;
15502;SDS011;7853;52.186;5.948;2023-06-22T00:37:35;3.13;;;2.59;;
15502;SDS011;7853;52.186;5.948;2023-06-22T00:38:35;3.59;;;2.89;;
15502;SDS011;7853;52.186;5.948;2023-06-22T00:39:35;3.19;;;2.59;;
15502;SDS011;7853;52.186;5.948;2023-06-22T00:40:35;3.41;;;2.85;;
15502;SDS011;7853;52.186;5.948;2023-06-22T00:41:35;3.27;;;2.73;;
15502;SDS011;7853;52.186;5.948;2023-06-22T00:42:35;3.08;;;2.65;;
15502;SDS011;7853;52.186;5.948;2023-06-22T00:43:35;2.87;;;2.53;;
15502;SDS011;7853;52.186;5.948;2023-06-22T00:44:35;2.77;;;2.51;;
15502;SDS011;7853;52.186;5.948;2023-06-22T00:45:35;3.23;;;2.80;;
15502;SDS011;7853;52.186;5.948;2023-06-22T00:46:35;3.32;;;2.79;;
15502;SDS011;7853;52.186;5.948;2023-06-22T00:47:35;3.29;;;2.78;;
15502;SDS011;7853;52.186;5.948;2023-06-22T00:48:35;3.26;;;2.70;;
15502;SDS011;7853;52.186;5.948;2023-06-22T00:49:35;3.31;;;2.71;;
15502;SDS011;7853;52.186;5.948;2023-06-22T00:50:35;2.90;;;2.51;;
15502;SDS011;7853;52.186;5.948;2023-06-22T00:51:35;2.98;;;2.72;;
15502;SDS011;7853;52.186;5.948;2023-06-22T00:52:35;2.87;;;2.59;;
15502;SDS011;7853;52.186;5.948;2023-06-22T00:53:35;2.80;;;2.57;;
15502;SDS011;7853;52.186;5.948;2023-06-22T00:54:35;3.10;;;2.62;;
15502;SDS011;7853;52.186;5.948;2023-06-22T00:55:35;3.09;;;2.72;;
15502;SDS011;7853;52.186;5.948;2023-06-22T00:56:35;2.94;;;2.64;;
15502;SDS011;7853;52.186;5.948;2023-06-22T00:57:35;3.65;;;2.65;;
15502;SDS011;7853;52.186;5.948;2023-06-22T00:58:35;3.25;;;2.57;;
15502;SDS011;7853;52.186;5.948;2023-06-22T00:59:35;3.19;;;2.74;;
15502;SDS011;7853;52.186;5.948;2023-06-22T01:00:35;3.09;;;2.69;;
15502;SDS011;7853;52.186;5.948;2023-06-22T01:01:35;2.94;;;2.63;;
15502;SDS011;7853;52.186;5.948;2023-06-22T01:02:35;3.63;;;2.69;;
15502;SDS011;7853;52.186;5.948;2023-06-22T01:03:35;3.85;;;2.96;;
15502;SDS011;7853;52.186;5.948;2023-06-22T01:04:35;3.12;;;2.56;;
15502;SDS011;7853;52.186;5.948;2023-06-22T01:05:35;3.30;;;2.66;;
15502;SDS011;7853;52.186;5.948;2023-06-22T01:06:35;2.95;;;2.74;;
15502;SDS011;7853;52.186;5.948;2023-06-22T01:07:35;2.76;;;2.54;;
15502;SDS011;7853;52.186;5.948;2023-06-22T01:08:36;2.97;;;2.60;;
15502;SDS011;7853;52.186;5.948;2023-06-22T01:09:35;2.93;;;2.67;;
15502;SDS011;7853;52.186;5.948;2023-06-22T01:10:36;2.90;;;2.66;;
15502;SDS011;7853;52.186;5.948;2023-06-22T01:11:36;2.95;;;2.69;;
15502;SDS011;7853;52.186;5.948;2023-06-22T01:12:38;2.87;;;2.67;;
15502;SDS011;7853;52.186;5.948;2023-06-22T01:13:35;3.08;;;2.61;;
15502;SDS011;7853;52.186;5.948;2023-06-22T01:14:35;2.91;;;2.66;;
15502;SDS011;7853;52.186;5.948;2023-06-22T01:15:36;2.93;;;2.66;;
15502;SDS011;7853;52.186;5.948;2023-06-22T01:16:35;3.03;;;2.65;;
15502;SDS011;7853;52.186;5.948;2023-06-22T01:17:35;2.94;;;2.62;;
15502;SDS011;7853;52.186;5.948;2023-06-22T01:18:35;2.72;;;2.47;;
15502;SDS011;7853;52.186;5.948;2023-06-22T01:19:35;3.03;;;2.70;;
15502;SDS011;7853;52.186;5.948;2023-06-22T01:20:35;2.96;;;2.51;;
15502;SDS011;7853;52.186;5.948;2023-06-22T01:21:34;3.46;;;2.72;;
15502;SDS011;7853;52.186;5.948;2023-06-22T01:22:40;2.91;;;2.61;;
15502;SDS011;7853;52.186;5.948;2023-06-22T01:23:39;3.22;;;2.69;;
15502;SDS011;7853;52.186;5.948;2023-06-22T01:29:09;2.97;;;2.62;;
15502;SDS011;7853;52.186;5.948;2023-06-22T01:30:22;2.94;;;2.70;;
15502;SDS011;7853;52.186;5.948;2023-06-22T01:31:29;3.02;;;2.69;;
15502;SDS011;7853;52.186;5.948;2023-06-22T01:32:34;2.80;;;2.50;;
15502;SDS011;7853;52.186;5.948;2023-06-22T01:33:35;2.85;;;2.61;;
15502;SDS011;7853;52.186;5.948;2023-06-22T01:34:35;2.86;;;2.59;;
15502;SDS011;7853;52.186;5.948;2023-06-22T01:35:36;2.87;;;2.53;;
15502;SDS011;7853;52.186;5.948;2023-06-22T01:36:36;4.13;;;2.65;;
15502;SDS011;7853;52.186;5.948;2023-06-22T01:37:36;2.74;;;2.50;;
15502;SDS011;7853;52.186;5.948;2023-06-22T01:38:36;6.88;;;2.68;;
15502;SDS011;7853;52.186;5.948;2023-06-22T01:39:36;2.97;;;2.64;;
15502;SDS011;7853;52.186;5.948;2023-06-22T01:40:36;3.10;;;2.78;;
15502;SDS011;7853;52.186;5.948;2023-06-22T01:41:37;3.26;;;2.54;;
15502;SDS011;7853;52.186;5.948;2023-06-22T01:42:36;3.13;;;2.52;;
15502;SDS011;7853;52.186;5.948;2023-06-22T01:43:36;3.11;;;2.63;;
15502;SDS011;7853;52.186;5.948;2023-06-22T01:44:36;2.98;;;2.72;;
15502;SDS011;7853;52.186;5.948;2023-06-22T01:45:36;2.67;;;2.45;;
15502;SDS011;7853;52.186;5.948;2023-06-22T01:46:36;2.77;;;2.52;;
15502;SDS011;7853;52.186;5.948;2023-06-22T01:47:36;3.09;;;2.51;;
15502;SDS011;7853;52.186;5.948;2023-06-22T01:48:36;2.84;;;2.57;;
15502;SDS011;7853;52.186;5.948;2023-06-22T01:49:36;2.99;;;2.61;;
15502;SDS011;7853;52.186;5.948;2023-06-22T01:50:35;2.94;;;2.59;;
15502;SDS011;7853;52.186;5.948;2023-06-22T01:51:36;2.92;;;2.59;;
15502;SDS011;7853;52.186;5.948;2023-06-22T01:52:35;2.95;;;2.53;;
15502;SDS011;7853;52.186;5.948;2023-06-22T01:53:35;3.08;;;2.69;;
15502;SDS011;7853;52.186;5.948;2023-06-22T01:54:36;3.06;;;2.71;;
15502;SDS011;7853;52.186;5.948;2023-06-22T01:55:35;2.95;;;2.59;;
15502;SDS011;7853;52.186;5.948;2023-06-22T01:56:35;2.92;;;2.67;;
15502;SDS011;7853;52.186;5.948;2023-06-22T01:57:35;2.97;;;2.65;;
15502;SDS011;7853;52.186;5.948;2023-06-22T01:58:36;2.80;;;2.55;;
15502;SDS011;7853;52.186;5.948;2023-06-22T01:59:37;3.07;;;2.62;;
15502;SDS011;7853;52.186;5.948;2023-06-22T02:00:36;2.72;;;2.52;;
15502;SDS011;7853;52.186;5.948;2023-06-22T02:01:35;2.92;;;2.45;;
15502;SDS011;7853;52.186;5.948;2023-06-22T02:02:37;2.99;;;2.63;;
15502;SDS011;7853;52.186;5.948;2023-06-22T02:03:36;3.20;;;2.73;;
15502;SDS011;7853;52.186;5.948;2023-06-22T02:04:36;2.98;;;2.72;;
15502;SDS011;7853;52.186;5.948;2023-06-22T02:05:36;3.00;;;2.57;;
15502;SDS011;7853;52.186;5.948;2023-06-22T02:06:36;2.89;;;2.66;;
15502;SDS011;7853;52.186;5.948;2023-06-22T02:07:37;3.07;;;2.75;;
15502;SDS011;7853;52.186;5.948;2023-06-22T02:08:36;2.81;;;2.56;;
15502;SDS011;7853;52.186;5.948;2023-06-22T02:09:35;3.52;;;2.49;;
15502;SDS011;7853;52.186;5.948;2023-06-22T02:10:35;4.29;;;2.52;;
15502;SDS011;7853;52.186;5.948;2023-06-22T02:11:35;2.87;;;2.60;;
15502;SDS011;7853;52.186;5.948;2023-06-22T02:12:35;2.73;;;2.47;;
15502;SDS011;7853;52.186;5.948;2023-06-22T02:13:35;2.94;;;2.53;;
15502;SDS011;7853;52.186;5.948;2023-06-22T02:14:35;2.80;;;2.56;;
15502;SDS011;7853;52.186;5.948;2023-06-22T02:15:35;3.09;;;2.53;;
15502;SDS011;7853;52.186;5.948;2023-06-22T02:16:35;3.35;;;2.56;;
15502;SDS011;7853;52.186;5.948;2023-06-22T02:17:35;3.29;;;2.58;;
15502;SDS011;7853;52.186;5.948;2023-06-22T02:18:35;2.82;;;2.48;;
15502;SDS011;7853;52.186;5.948;2023-06-22T02:19:35;2.98;;;2.57;;
15502;SDS011;7853;52.186;5.948;2023-06-22T02:20:36;3.27;;;2.56;;
15502;SDS011;7853;52.186;5.948;2023-06-22T02:21:35;2.70;;;2.45;;
15502;SDS011;7853;52.186;5.948;2023-06-22T02:22:35;2.68;;;2.48;;
15502;SDS011;7853;52.186;5.948;2023-06-22T02:23:35;2.77;;;2.49;;
15502;SDS011;7853;52.186;5.948;2023-06-22T02:24:35;3.28;;;2.53;;
15502;SDS011;7853;52.186;5.948;2023-06-22T02:25:35;3.51;;;2.50;;
15502;SDS011;7853;52.186;5.948;2023-06-22T02:26:35;2.88;;;2.60;;
15502;SDS011;7853;52.186;5.948;2023-06-22T02:27:35;2.91;;;2.41;;
15502;SDS011;7853;52.186;5.948;2023-06-22T02:28:35;2.83;;;2.49;;
15502;SDS011;7853;52.186;5.948;2023-06-22T02:29:35;3.10;;;2.39;;
15502;SDS011;7853;52.186;5.948;2023-06-22T02:30:35;2.84;;;2.59;;
15502;SDS011;7853;52.186;5.948;2023-06-22T02:31:35;2.70;;;2.42;;
15502;SDS011;7853;52.186;5.948;2023-06-22T02:32:34;2.88;;;2.46;;
15502;SDS011;7853;52.186;5.948;2023-06-22T02:33:35;2.89;;;2.57;;
15502;SDS011;7853;52.186;5.948;2023-06-22T02:34:35;3.00;;;2.66;;
15502;SDS011;7853;52.186;5.948;2023-06-22T02:35:35;2.83;;;2.52;;
15502;SDS011;7853;52.186;5.948;2023-06-22T02:36:35;2.75;;;2.43;;
15502;SDS011;7853;52.186;5.948;2023-06-22T02:37:35;2.67;;;2.41;;
15502;SDS011;7853;52.186;5.948;2023-06-22T02:38:35;2.61;;;2.41;;
15502;SDS011;7853;52.186;5.948;2023-06-22T02:39:35;3.22;;;2.47;;
15502;SDS011;7853;52.186;5.948;2023-06-22T02:40:35;2.77;;;2.52;;
15502;SDS011;7853;52.186;5.948;2023-06-22T02:41:35;2.92;;;2.44;;
15502;SDS011;7853;52.186;5.948;2023-06-22T02:42:35;2.95;;;2.51;;
15502;SDS011;7853;52.186;5.948;2023-06-22T02:43:35;2.83;;;2.54;;
15502;SDS011;7853;52.186;5.948;2023-06-22T02:44:35;3.16;;;2.51;;
15502;SDS011;7853;52.186;5.948;2023-06-22T02:45:35;3.17;;;2.59;;
15502;SDS011;7853;52.186;5.948;2023-06-22T02:46:35;2.75;;;2.48;;
15502;SDS011;7853;52.186;5.948;2023-06-22T02:47:35;2.83;;;2.58;;
15502;SDS011;7853;52.186;5.948;2023-06-22T02:48:35;2.94;;;2.54;;
15502;SDS011;7853;52.186;5.948;2023-06-22T02:49:35;2.64;;;2.39;;
15502;SDS011;7853;52.186;5.948;2023-06-22T02:50:35;2.69;;;2.44;;
15502;SDS011;7853;52.186;5.948;2023-06-22T02:51:35;3.16;;;2.60;;
15502;SDS011;7853;52.186;5.948;2023-06-22T02:52:35;3.16;;;2.49;;
15502;SDS011;7853;52.186;5.948;2023-06-22T02:53:35;2.57;;;2.37;;
15502;SDS011;7853;52.186;5.948;2023-06-22T02:54:35;2.59;;;2.39;;
15502;SDS011;7853;52.186;5.948;2023-06-22T02:55:35;2.64;;;2.40;;
15502;SDS011;7853;52.186;5.948;2023-06-22T02:56:34;2.75;;;2.45;;
15502;SDS011;7853;52.186;5.948;2023-06-22T02:57:35;2.74;;;2.50;;
15502;SDS011;7853;52.186;5.948;2023-06-22T02:58:35;2.56;;;2.36;;
15502;SDS011;7853;52.186;5.948;2023-06-22T02:59:35;2.78;;;2.53;;
15502;SDS011;7853;52.186;5.948;2023-06-22T03:00:35;3.31;;;2.52;;
15502;SDS011;7853;52.186;5.948;2023-06-22T03:01:34;2.97;;;2.57;;
15502;SDS011;7853;52.186;5.948;2023-06-22T03:02:35;2.92;;;2.65;;
15502;SDS011;7853;52.186;5.948;2023-06-22T03:03:35;2.92;;;2.53;;
15502;SDS011;7853;52.186;5.948;2023-06-22T03:04:35;2.91;;;2.45;;
15502;SDS011;7853;52.186;5.948;2023-06-22T03:05:34;2.79;;;2.48;;
15502;SDS011;7853;52.186;5.948;2023-06-22T03:06:35;2.84;;;2.47;;
15502;SDS011;7853;52.186;5.948;2023-06-22T03:07:35;3.01;;;2.57;;
15502;SDS011;7853;52.186;5.948;2023-06-22T03:08:35;2.83;;;2.47;;
15502;SDS011;7853;52.186;5.948;2023-06-22T03:09:35;2.59;;;2.38;;
15502;SDS011;7853;52.186;5.948;2023-06-22T03:10:35;2.80;;;2.43;;
15502;SDS011;7853;52.186;5.948;2023-06-22T03:11:34;2.49;;;2.27;;
15502;SDS011;7853;52.186;5.948;2023-06-22T03:12:35;2.76;;;2.36;;
15502;SDS011;7853;52.186;5.948;2023-06-22T03:13:34;2.83;;;2.38;;
15502;SDS011;7853;52.186;5.948;2023-06-22T03:14:34;2.61;;;2.36;;
15502;SDS011;7853;52.186;5.948;2023-06-22T03:15:34;2.70;;;2.43;;
15502;SDS011;7853;52.186;5.948;2023-06-22T03:16:35;2.87;;;2.55;;
15502;SDS011;7853;52.186;5.948;2023-06-22T03:17:35;2.95;;;2.59;;
15502;SDS011;7853;52.186;5.948;2023-06-22T03:18:34;2.77;;;2.54;;
15502;SDS011;7853;52.186;5.948;2023-06-22T03:19:34;2.62;;;2.42;;
15502;SDS011;7853;52.186;5.948;2023-06-22T03:20:34;2.74;;;2.50;;
15502;SDS011;7853;52.186;5.948;2023-06-22T03:21:35;2.53;;;2.31;;
15502;SDS011;7853;52.186;5.948;2023-06-22T03:22:35;2.81;;;2.55;;
15502;SDS011;7853;52.186;5.948;2023-06-22T03:23:35;3.06;;;2.40;;
15502;SDS011;7853;52.186;5.948;2023-06-22T03:24:35;3.06;;;2.47;;
15502;SDS011;7853;52.186;5.948;2023-06-22T03:25:35;3.01;;;2.44;;
15502;SDS011;7853;52.186;5.948;2023-06-22T03:26:35;2.83;;;2.53;;
15502;SDS011;7853;52.186;5.948;2023-06-22T03:27:35;2.77;;;2.39;;
15502;SDS011;7853;52.186;5.948;2023-06-22T03:28:34;2.67;;;2.42;;
15502;SDS011;7853;52.186;5.948;2023-06-22T03:29:34;2.84;;;2.57;;
15502;SDS011;7853;52.186;5.948;2023-06-22T03:30:35;3.18;;;2.50;;
15502;SDS011;7853;52.186;5.948;2023-06-22T03:31:34;3.06;;;2.42;;
15502;SDS011;7853;52.186;5.948;2023-06-22T03:32:34;2.70;;;2.48;;
15502;SDS011;7853;52.186;5.948;2023-06-22T03:33:34;2.88;;;2.53;;
15502;SDS011;7853;52.186;5.948;2023-06-22T03:34:34;2.74;;;2.40;;
15502;SDS011;7853;52.186;5.948;2023-06-22T03:35:34;2.80;;;2.56;;
15502;SDS011;7853;52.186;5.948;2023-06-22T03:36:34;2.76;;;2.51;;
15502;SDS011;7853;52.186;5.948;2023-06-22T03:37:35;3.01;;;2.45;;
15502;SDS011;7853;52.186;5.948;2023-06-22T03:38:35;2.90;;;2.49;;
15502;SDS011;7853;52.186;5.948;2023-06-22T03:39:34;2.92;;;2.54;;
15502;SDS011;7853;52.186;5.948;2023-06-22T03:40:34;2.70;;;2.42;;
15502;SDS011;7853;52.186;5.948;2023-06-22T03:41:34;2.91;;;2.63;;
15502;SDS011;7853;52.186;5.948;2023-06-22T03:42:35;2.68;;;2.46;;
15502;SDS011;7853;52.186;5.948;2023-06-22T03:43:34;2.80;;;2.52;;
15502;SDS011;7853;52.186;5.948;2023-06-22T03:44:35;2.76;;;2.41;;
15502;SDS011;7853;52.186;5.948;2023-06-22T03:45:34;2.66;;;2.44;;
15502;SDS011;7853;52.186;5.948;2023-06-22T03:46:34;3.09;;;2.54;;
15502;SDS011;7853;52.186;5.948;2023-06-22T03:47:34;2.82;;;2.46;;
15502;SDS011;7853;52.186;5.948;2023-06-22T03:48:35;2.75;;;2.45;;
15502;SDS011;7853;52.186;5.948;2023-06-22T03:49:34;2.81;;;2.38;;
15502;SDS011;7853;52.186;5.948;2023-06-22T03:50:34;2.77;;;2.54;;
15502;SDS011;7853;52.186;5.948;2023-06-22T03:51:35;2.71;;;2.49;;
15502;SDS011;7853;52.186;5.948;2023-06-22T03:52:35;3.00;;;2.34;;
15502;SDS011;7853;52.186;5.948;2023-06-22T03:53:34;3.06;;;2.46;;
15502;SDS011;7853;52.186;5.948;2023-06-22T03:54:34;2.66;;;2.32;;
15502;SDS011;7853;52.186;5.948;2023-06-22T03:55:34;3.02;;;2.70;;
15502;SDS011;7853;52.186;5.948;2023-06-22T03:56:34;2.74;;;2.46;;
15502;SDS011;7853;52.186;5.948;2023-06-22T03:57:34;2.66;;;2.39;;
15502;SDS011;7853;52.186;5.948;2023-06-22T03:58:34;2.90;;;2.45;;
15502;SDS011;7853;52.186;5.948;2023-06-22T03:59:34;2.75;;;2.37;;
15502;SDS011;7853;52.186;5.948;2023-06-22T04:00:35;2.66;;;2.43;;
15502;SDS011;7853;52.186;5.948;2023-06-22T04:01:34;3.23;;;2.62;;
15502;SDS011;7853;52.186;5.948;2023-06-22T04:02:34;2.83;;;2.55;;
15502;SDS011;7853;52.186;5.948;2023-06-22T04:03:34;2.68;;;2.35;;
15502;SDS011;7853;52.186;5.948;2023-06-22T04:04:34;3.06;;;2.51;;
15502;SDS011;7853;52.186;5.948;2023-06-22T04:05:34;2.76;;;2.49;;
15502;SDS011;7853;52.186;5.948;2023-06-22T04:06:34;2.70;;;2.43;;
15502;SDS011;7853;52.186;5.948;2023-06-22T04:07:34;3.08;;;2.51;;
15502;SDS011;7853;52.186;5.948;2023-06-22T04:08:34;4.81;;;2.69;;
15502;SDS011;7853;52.186;5.948;2023-06-22T04:09:35;2.83;;;2.56;;
15502;SDS011;7853;52.186;5.948;2023-06-22T04:10:35;3.03;;;2.59;;
15502;SDS011;7853;52.186;5.948;2023-06-22T04:11:34;2.63;;;2.39;;
15502;SDS011;7853;52.186;5.948;2023-06-22T04:12:34;2.82;;;2.43;;
15502;SDS011;7853;52.186;5.948;2023-06-22T04:13:34;2.98;;;2.42;;
15502;SDS011;7853;52.186;5.948;2023-06-22T04:14:35;2.93;;;2.65;;
15502;SDS011;7853;52.186;5.948;2023-06-22T04:15:34;2.67;;;2.47;;
15502;SDS011;7853;52.186;5.948;2023-06-22T04:16:34;2.76;;;2.47;;
15502;SDS011;7853;52.186;5.948;2023-06-22T04:17:34;2.81;;;2.53;;
15502;SDS011;7853;52.186;5.948;2023-06-22T04:18:34;3.10;;;2.43;;
15502;SDS011;7853;52.186;5.948;2023-06-22T04:19:34;2.88;;;2.48;;
15502;SDS011;7853;52.186;5.948;2023-06-22T04:20:34;3.01;;;2.46;;
15502;SDS011;7853;52.186;5.948;2023-06-22T04:21:35;2.82;;;2.57;;
15502;SDS011;7853;52.186;5.948;2023-06-22T04:22:35;3.44;;;2.50;;
15502;SDS011;7853;52.186;5.948;2023-06-22T04:23:34;2.79;;;2.52;;
15502;SDS011;7853;52.186;5.948;2023-06-22T04:24:34;3.25;;;2.64;;
15502;SDS011;7853;52.186;5.948;2023-06-22T04:25:34;2.75;;;2.55;;
15502;SDS011;7853;52.186;5.948;2023-06-22T04:26:35;2.83;;;2.60;;
15502;SDS011;7853;52.186;5.948;2023-06-22T04:27:35;2.90;;;2.58;;
15502;SDS011;7853;52.186;5.948;2023-06-22T04:28:34;3.18;;;2.57;;
15502;SDS011;7853;52.186;5.948;2023-06-22T04:29:34;3.32;;;2.53;;
15502;SDS011;7853;52.186;5.948;2023-06-22T04:30:35;3.54;;;2.74;;
15502;SDS011;7853;52.186;5.948;2023-06-22T04:31:35;2.97;;;2.58;;
15502;SDS011;7853;52.186;5.948;2023-06-22T04:32:34;2.91;;;2.50;;
15502;SDS011;7853;52.186;5.948;2023-06-22T04:33:34;2.72;;;2.48;;
15502;SDS011;7853;52.186;5.948;2023-06-22T04:34:34;2.94;;;2.48;;
15502;SDS011;7853;52.186;5.948;2023-06-22T04:35:34;2.91;;;2.49;;
15502;SDS011;7853;52.186;5.948;2023-06-22T04:36:35;4.47;;;3.28;;
15502;SDS011;7853;52.186;5.948;2023-06-22T04:37:34;8.01;;;5.71;;
15502;SDS011;7853;52.186;5.948;2023-06-22T04:38:35;9.96;;;6.73;;
15502;SDS011;7853;52.186;5.948;2023-06-22T04:39:34;11.83;;;8.25;;
15502;SDS011;7853;52.186;5.948;2023-06-22T04:40:34;11.84;;;9.49;;
15502;SDS011;7853;52.186;5.948;2023-06-22T04:41:35;14.51;;;10.94;;
15502;SDS011;7853;52.186;5.948;2023-06-22T04:42:35;15.91;;;11.80;;
15502;SDS011;7853;52.186;5.948;2023-06-22T04:43:35;17.72;;;12.86;;
15502;SDS011;7853;52.186;5.948;2023-06-22T04:44:34;17.04;;;12.64;;
15502;SDS011;7853;52.186;5.948;2023-06-22T04:45:34;19.03;;;13.92;;
15502;SDS011;7853;52.186;5.948;2023-06-22T04:46:35;23.12;;;15.30;;
15502;SDS011;7853;52.186;5.948;2023-06-22T04:47:34;20.67;;;15.91;;
15502;SDS011;7853;52.186;5.948;2023-06-22T04:48:35;22.04;;;16.80;;
15502;SDS011;7853;52.186;5.948;2023-06-22T04:49:35;23.58;;;17.62;;
15502;SDS011;7853;52.186;5.948;2023-06-22T04:50:35;24.07;;;17.93;;
15502;SDS011;7853;52.186;5.948;2023-06-22T04:51:39;24.83;;;18.49;;
15502;SDS011;7853;52.186;5.948;2023-06-22T04:52:34;24.08;;;18.24;;
15502;SDS011;7853;52.186;5.948;2023-06-22T04:53:34;25.62;;;19.14;;
15502;SDS011;7853;52.186;5.948;2023-06-22T04:54:35;27.82;;;19.65;;
15502;SDS011;7853;52.186;5.948;2023-06-22T04:55:34;28.23;;;20.57;;
15502;SDS011;7853;52.186;5.948;2023-06-22T04:56:34;27.70;;;21.10;;
15502;SDS011;7853;52.186;5.948;2023-06-22T04:57:34;31.09;;;21.43;;
15502;SDS011;7853;52.186;5.948;2023-06-22T04:58:35;29.66;;;21.94;;
15502;SDS011;7853;52.186;5.948;2023-06-22T04:59:35;29.80;;;21.64;;
15502;SDS011;7853;52.186;5.948;2023-06-22T05:00:34;30.43;;;22.42;;
15502;SDS011;7853;52.186;5.948;2023-06-22T05:01:35;30.62;;;22.50;;
15502;SDS011;7853;52.186;5.948;2023-06-22T05:02:34;30.98;;;22.96;;
15502;SDS011;7853;52.186;5.948;2023-06-22T05:03:34;32.82;;;23.14;;
15502;SDS011;7853;52.186;5.948;2023-06-22T05:04:35;31.08;;;23.35;;
15502;SDS011;7853;52.186;5.948;2023-06-22T05:05:34;32.17;;;23.85;;
15502;SDS011;7853;52.186;5.948;2023-06-22T05:06:34;32.76;;;23.34;;
15502;SDS011;7853;52.186;5.948;2023-06-22T05:07:35;32.10;;;23.67;;
15502;SDS011;7853;52.186;5.948;2023-06-22T05:08:34;31.20;;;23.89;;
15502;SDS011;7853;52.186;5.948;2023-06-22T05:09:34;32.32;;;23.85;;
15502;SDS011;7853;52.186;5.948;2023-06-22T05:10:35;32.23;;;24.26;;
15502;SDS011;7853;52.186;5.948;2023-06-22T05:11:34;33.08;;;25.28;;
15502;SDS011;7853;52.186;5.948;2023-06-22T05:12:34;32.14;;;24.43;;
15502;SDS011;7853;52.186;5.948;2023-06-22T05:13:34;33.16;;;24.17;;
15502;SDS011;7853;52.186;5.948;2023-06-22T05:14:34;33.80;;;24.85;;
15502;SDS011;7853;52.186;5.948;2023-06-22T05:15:35;34.36;;;24.72;;
15502;SDS011;7853;52.186;5.948;2023-06-22T05:16:34;34.03;;;24.78;;
15502;SDS011;7853;52.186;5.948;2023-06-22T05:17:35;31.90;;;24.87;;
15502;SDS011;7853;52.186;5.948;2023-06-22T05:18:34;33.24;;;25.05;;
15502;SDS011;7853;52.186;5.948;2023-06-22T05:19:34;33.02;;;24.90;;
15502;SDS011;7853;52.186;5.948;2023-06-22T05:20:34;34.20;;;24.73;;
15502;SDS011;7853;52.186;5.948;2023-06-22T05:21:35;33.68;;;24.64;;
15502;SDS011;7853;52.186;5.948;2023-06-22T05:22:34;34.03;;;25.35;;
15502;SDS011;7853;52.186;5.948;2023-06-22T05:23:34;32.89;;;24.74;;
15502;SDS011;7853;52.186;5.948;2023-06-22T05:24:35;34.05;;;25.21;;
15502;SDS011;7853;52.186;5.948;2023-06-22T05:25:34;35.17;;;25.13;;
15502;SDS011;7853;52.186;5.948;2023-06-22T05:26:35;33.69;;;25.01;;
15502;SDS011;7853;52.186;5.948;2023-06-22T05:27:35;33.83;;;25.51;;
15502;SDS011;7853;52.186;5.948;2023-06-22T05:28:34;34.14;;;25.40;;
15502;SDS011;7853;52.186;5.948;2023-06-22T05:29:35;31.58;;;24.45;;
15502;SDS011;7853;52.186;5.948;2023-06-22T05:30:34;32.64;;;24.82;;
15502;SDS011;7853;52.186;5.948;2023-06-22T05:31:34;35.97;;;25.05;;
15502;SDS011;7853;52.186;5.948;2023-06-22T05:32:35;33.31;;;25.03;;
15502;SDS011;7853;52.186;5.948;2023-06-22T05:33:34;32.85;;;24.77;;
15502;SDS011;7853;52.186;5.948;2023-06-22T05:34:35;34.45;;;25.12;;
15502;SDS011;7853;52.186;5.948;2023-06-22T05:35:35;35.05;;;25.06;;
15502;SDS011;7853;52.186;5.948;2023-06-22T05:36:35;33.26;;;24.22;;
15502;SDS011;7853;52.186;5.948;2023-06-22T05:37:34;33.06;;;24.19;;
15502;SDS011;7853;52.186;5.948;2023-06-22T05:38:35;33.93;;;25.59;;
15502;SDS011;7853;52.186;5.948;2023-06-22T05:39:34;34.31;;;24.55;;
15502;SDS011;7853;52.186;5.948;2023-06-22T05:40:34;32.86;;;24.28;;
15502;SDS011;7853;52.186;5.948;2023-06-22T05:41:35;32.55;;;23.96;;
15502;SDS011;7853;52.186;5.948;2023-06-22T05:42:34;32.14;;;23.84;;
15502;SDS011;7853;52.186;5.948;2023-06-22T05:43:35;33.33;;;24.51;;
15502;SDS011;7853;52.186;5.948;2023-06-22T05:44:34;32.41;;;23.80;;
15502;SDS011;7853;52.186;5.948;2023-06-22T05:45:34;33.27;;;24.75;;
15502;SDS011;7853;52.186;5.948;2023-06-22T05:46:34;33.34;;;24.01;;
15502;SDS011;7853;52.186;5.948;2023-06-22T05:47:34;32.18;;;24.58;;
15502;SDS011;7853;52.186;5.948;2023-06-22T05:48:34;32.24;;;24.79;;
15502;SDS011;7853;52.186;5.948;2023-06-22T05:49:35;31.27;;;24.22;;
15502;SDS011;7853;52.186;5.948;2023-06-22T05:50:35;32.28;;;24.45;;
15502;SDS011;7853;52.186;5.948;2023-06-22T05:51:34;32.32;;;23.87;;
15502;SDS011;7853;52.186;5.948;2023-06-22T05:52:34;32.81;;;24.11;;
15502;SDS011;7853;52.186;5.948;2023-06-22T05:53:35;32.51;;;23.55;;
15502;SDS011;7853;52.186;5.948;2023-06-22T05:54:34;31.35;;;23.41;;
15502;SDS011;7853;52.186;5.948;2023-06-22T05:55:34;30.07;;;23.45;;
15502;SDS011;7853;52.186;5.948;2023-06-22T05:56:34;29.09;;;23.41;;
15502;SDS011;7853;52.186;5.948;2023-06-22T05:57:35;32.03;;;24.21;;
15502;SDS011;7853;52.186;5.948;2023-06-22T05:58:35;33.19;;;23.41;;
15502;SDS011;7853;52.186;5.948;2023-06-22T05:59:34;31.05;;;23.67;;
15502;SDS011;7853;52.186;5.948;2023-06-22T06:00:35;32.27;;;24.47;;
15502;SDS011;7853;52.186;5.948;2023-06-22T06:01:34;32.71;;;24.35;;
15502;SDS011;7853;52.186;5.948;2023-06-22T06:02:35;31.28;;;23.89;;
15502;SDS011;7853;52.186;5.948;2023-06-22T06:03:34;32.22;;;24.42;;
15502;SDS011;7853;52.186;5.948;2023-06-22T06:04:34;31.28;;;23.92;;
15502;SDS011;7853;52.186;5.948;2023-06-22T06:05:35;33.97;;;23.60;;
15502;SDS011;7853;52.186;5.948;2023-06-22T06:06:35;31.45;;;23.52;;
15502;SDS011;7853;52.186;5.948;2023-06-22T06:07:34;31.70;;;23.29;;
15502;SDS011;7853;52.186;5.948;2023-06-22T06:08:35;30.55;;;23.38;;
15502;SDS011;7853;52.186;5.948;2023-06-22T06:09:34;32.65;;;23.34;;
15502;SDS011;7853;52.186;5.948;2023-06-22T06:10:34;29.75;;;23.06;;